createdAt,value
2019-03-12T00:01:23.938Z,95.90
2019-03-12T00:03:51.773Z,95.80
2019-03-12T00:06:19.261Z,95.80
2019-03-12T00:08:46.895Z,95.80
2019-03-12T00:11:14.376Z,95.90
2019-03-12T00:13:41.891Z,96.00
2019-03-12T00:16:09.374Z,96.00
2019-03-12T00:18:37.000Z,96.00
2019-03-12T00:21:05.266Z,95.90
2019-03-12T00:23:32.630Z,95.90
2019-03-12T00:26:00.134Z,95.90
2019-03-12T00:28:27.539Z,96.00
2019-03-12T00:30:55.016Z,96.00
2019-03-12T00:33:22.402Z,96.10
2019-03-12T00:35:49.835Z,96.30
2019-03-12T00:38:17.590Z,96.40
2019-03-12T00:40:45.527Z,96.60
2019-03-12T00:43:12.910Z,96.60
2019-03-12T00:45:40.430Z,96.60
2019-03-12T00:48:08.220Z,96.60
2019-03-12T00:50:35.658Z,96.60
2019-03-12T00:53:03.153Z,96.50
2019-03-12T00:55:30.919Z,96.50
2019-03-12T00:57:58.277Z,96.50
2019-03-12T01:00:26.082Z,96.40
2019-03-12T01:02:53.575Z,96.40
2019-03-12T01:05:21.183Z,96.40
2019-03-12T01:07:48.593Z,96.40
2019-03-12T01:10:16.340Z,96.50
2019-03-12T01:12:43.746Z,96.50
2019-03-12T01:15:11.866Z,96.50
2019-03-12T01:17:39.571Z,96.80
2019-03-12T01:20:08.886Z,96.60
2019-03-12T01:22:36.313Z,96.80
2019-03-12T01:25:04.575Z,96.90
2019-03-12T01:27:31.937Z,96.90
2019-03-12T01:29:59.422Z,96.90
2019-03-12T01:32:26.995Z,96.80
2019-03-12T01:34:54.333Z,96.70
2019-03-12T01:37:21.699Z,96.70
2019-03-12T01:39:49.470Z,96.80
2019-03-12T01:42:16.946Z,97.00
2019-03-12T01:44:44.672Z,97.10
2019-03-12T01:47:12.140Z,97.10
2019-03-12T01:49:40.214Z,97.00
2019-03-12T01:52:07.646Z,97.00
2019-03-12T01:54:35.006Z,97.00
2019-03-12T01:57:02.468Z,97.00
2019-03-12T01:59:30.131Z,97.10
2019-03-12T02:01:57.910Z,97.10
2019-03-12T02:04:25.644Z,97.30
2019-03-12T02:06:52.944Z,97.30
2019-03-12T02:09:20.390Z,97.40
2019-03-12T02:11:47.788Z,97.50
2019-03-12T02:14:26.253Z,97.50
2019-03-12T02:16:54.080Z,97.60
2019-03-12T02:19:21.691Z,97.70
2019-03-12T02:21:49.843Z,97.60
2019-03-12T02:24:17.388Z,97.70
2019-03-12T02:26:44.738Z,97.60
2019-03-12T02:29:12.231Z,97.60
2019-03-12T02:31:39.694Z,97.60
2019-03-12T02:34:07.161Z,97.70
2019-03-12T02:36:34.986Z,97.90
2019-03-12T02:39:03.793Z,98.00
2019-03-12T02:41:31.522Z,97.90
2019-03-12T02:43:58.850Z,98.00
2019-03-12T02:46:26.540Z,98.10
2019-03-12T02:48:54.035Z,98.10
2019-03-12T02:51:21.713Z,98.20
2019-03-12T02:53:49.434Z,98.30
2019-03-12T02:56:16.911Z,98.40
2019-03-12T02:58:44.747Z,98.40
2019-03-12T03:01:12.622Z,98.30
2019-03-12T03:03:40.097Z,98.30
2019-03-12T03:06:17.076Z,98.30
2019-03-12T03:08:44.611Z,98.10
2019-03-12T03:11:12.160Z,98.00
2019-03-12T03:13:39.913Z,97.90
2019-03-12T03:16:07.416Z,97.90
2019-03-12T03:18:34.883Z,97.90
2019-03-12T03:21:02.811Z,97.90
2019-03-12T03:23:30.545Z,98.00
2019-03-12T03:25:58.121Z,97.90
2019-03-12T03:28:25.598Z,97.90
2019-03-12T03:30:53.024Z,97.90
2019-03-12T03:33:20.543Z,98.00
2019-03-12T03:35:47.950Z,98.00
2019-03-12T03:38:15.478Z,98.00
2019-03-12T03:40:43.063Z,98.00
2019-03-12T03:43:10.515Z,98.10
2019-03-12T03:45:37.953Z,98.10
2019-03-12T03:48:05.475Z,98.00
2019-03-12T03:50:33.016Z,98.10
2019-03-12T03:53:00.702Z,97.90
2019-03-12T03:55:28.415Z,98.20
2019-03-12T03:57:55.767Z,98.70
2019-03-12T04:00:23.520Z,99.10
2019-03-12T04:02:51.011Z,99.30
2019-03-12T04:05:18.770Z,99.30
2019-03-12T04:07:46.278Z,99.50
2019-03-12T04:10:14.203Z,99.50
2019-03-12T04:12:41.621Z,99.40
2019-03-12T04:15:09.450Z,99.10
2019-03-12T04:17:36.996Z,99.10
2019-03-12T04:20:04.654Z,99.10
2019-03-12T04:22:32.334Z,99.10
2019-03-12T04:24:59.682Z,99.10
2019-03-12T04:27:27.316Z,99.10
2019-03-12T04:29:54.929Z,99.00
2019-03-12T04:32:22.654Z,99.10
2019-03-12T04:34:50.719Z,99.10
2019-03-12T04:37:18.254Z,99.10
2019-03-12T04:39:45.775Z,99.20
2019-03-12T04:42:13.491Z,99.30
2019-03-12T04:44:41.004Z,99.30
2019-03-12T04:47:08.813Z,99.40
2019-03-12T04:49:36.581Z,99.40
2019-03-12T04:52:04.149Z,99.40
2019-03-12T04:54:32.815Z,99.50
2019-03-12T04:57:01.018Z,99.60
2019-03-12T04:59:28.370Z,99.90
2019-03-12T05:01:55.793Z,99.90
2019-03-12T05:04:23.704Z,99.90
2019-03-12T05:06:51.275Z,99.90
2019-03-12T05:09:19.010Z,99.90
2019-03-12T05:11:46.823Z,99.90
2019-03-12T05:14:33.457Z,99.90
2019-03-12T05:17:12.128Z,99.90
2019-03-12T05:19:43.704Z,99.90
2019-03-12T05:22:11.168Z,99.90
2019-03-12T05:24:38.597Z,99.90
2019-03-12T05:27:06.367Z,99.90
2019-03-12T05:29:34.295Z,99.90
2019-03-12T05:32:01.760Z,99.90
2019-03-12T05:34:29.586Z,99.90
2019-03-12T05:36:57.038Z,99.90
2019-03-12T05:39:24.476Z,99.90
2019-03-12T05:41:52.064Z,99.90
2019-03-12T05:44:19.935Z,99.80
2019-03-12T05:46:48.260Z,99.80
2019-03-12T05:49:15.805Z,99.90
2019-03-12T05:51:44.187Z,99.70
2019-03-12T05:54:11.981Z,99.70
2019-03-12T05:56:39.400Z,99.40
2019-03-12T05:59:06.904Z,99.10
2019-03-12T06:01:34.768Z,99.10
2019-03-12T06:04:02.627Z,99.10
2019-03-12T06:06:30.212Z,99.10
2019-03-12T06:08:58.659Z,99.10
2019-03-12T06:11:26.225Z,99.10
2019-03-12T06:13:53.838Z,99.10
2019-03-12T06:16:21.862Z,99.10
2019-03-12T06:18:49.310Z,99.00
2019-03-12T06:21:17.037Z,99.00
2019-03-12T06:23:45.157Z,98.70
2019-03-12T06:26:13.106Z,98.60
2019-03-12T06:28:40.504Z,98.30
2019-03-12T06:31:26.340Z,98.10
2019-03-12T06:34:07.078Z,98.20
2019-03-12T06:36:42.330Z,97.90
2019-03-12T06:39:47.230Z,97.80
2019-03-12T06:42:29.758Z,97.70
2019-03-12T06:45:31.843Z,97.50
2019-03-12T06:48:36.910Z,97.50
2019-03-12T06:51:22.708Z,97.30
2019-03-12T06:54:18.801Z,97.10
2019-03-12T06:57:05.690Z,97.00
2019-03-12T07:00:02.056Z,96.90
2019-03-12T07:02:47.804Z,96.80
2019-03-12T07:05:33.915Z,96.60
2019-03-12T07:08:32.983Z,96.50
2019-03-12T07:11:10.041Z,96.60
2019-03-12T07:13:54.139Z,96.70
2019-03-12T07:16:43.905Z,96.10
2019-03-12T07:19:45.845Z,96.00
2019-03-12T07:22:28.693Z,96.00
2019-03-12T07:25:10.386Z,96.20
2019-03-12T07:27:46.819Z,96.10
2019-03-12T07:30:52.140Z,95.20
2019-03-12T07:33:48.114Z,95.70
2019-03-12T07:36:32.882Z,95.30
2019-03-12T07:39:31.625Z,95.20
2019-03-12T07:42:12.682Z,94.90
2019-03-12T07:44:57.111Z,95.20
2019-03-12T07:47:44.083Z,94.80
2019-03-12T07:50:26.984Z,95.10
2019-03-12T07:53:31.801Z,94.90
2019-03-12T07:56:05.874Z,94.80
2019-03-12T07:58:51.113Z,95.10
2019-03-12T08:01:35.191Z,94.80
2019-03-12T08:04:25.130Z,94.80
2019-03-12T08:07:03.782Z,95.00
2019-03-12T08:09:49.239Z,94.90
2019-03-12T08:12:36.585Z,94.70
2019-03-12T08:15:23.008Z,94.60
2019-03-12T08:18:05.914Z,94.30
2019-03-12T08:20:55.522Z,94.00
2019-03-12T08:23:29.157Z,94.10
2019-03-12T08:26:25.318Z,93.80
2019-03-12T08:29:01.545Z,93.30
2019-03-12T08:31:50.451Z,91.20
2019-03-12T08:34:36.593Z,91.90
2019-03-12T08:37:38.522Z,92.10
2019-03-12T08:40:29.151Z,91.30
2019-03-12T08:43:14.650Z,91.20
2019-03-12T08:46:00.843Z,91.60
2019-03-12T08:48:47.770Z,91.50
2019-03-12T08:51:34.071Z,91.10
2019-03-12T08:54:21.642Z,90.20
2019-03-12T08:56:55.947Z,90.50
2019-03-12T08:59:42.795Z,90.50
2019-03-12T09:02:28.510Z,90.40
2019-03-12T09:05:16.498Z,91.00
2019-03-12T09:07:54.341Z,90.10
2019-03-12T09:10:39.962Z,90.80
2019-03-12T09:13:16.927Z,88.20
2019-03-12T09:16:02.472Z,87.90
2019-03-12T09:19:07.689Z,87.50
2019-03-12T09:21:57.514Z,88.80
2019-03-12T09:24:47.747Z,86.30
2019-03-12T09:27:41.730Z,88.20
2019-03-12T09:30:29.215Z,88.00
2019-03-12T09:33:16.150Z,85.10
2019-03-12T09:36:12.221Z,87.10
2019-03-12T09:38:57.657Z,84.10
2019-03-12T09:41:59.919Z,84.80
2019-03-12T09:44:50.012Z,81.90
2019-03-12T09:47:37.759Z,81.90
2019-03-12T09:50:16.780Z,79.20
2019-03-12T09:52:53.368Z,80.00
2019-03-12T09:55:43.458Z,79.20
2019-03-12T09:58:46.324Z,78.80
2019-03-12T10:01:33.249Z,80.00
2019-03-12T10:04:09.358Z,77.90
2019-03-12T10:06:58.529Z,77.30
2019-03-12T10:09:42.468Z,78.10
2019-03-12T10:12:32.476Z,76.90
2019-03-12T10:15:17.726Z,75.60
2019-03-12T10:18:08.171Z,76.10
2019-03-12T10:20:50.846Z,73.30
2019-03-12T10:23:37.897Z,74.00
2019-03-12T10:26:17.918Z,74.00
2019-03-12T10:29:07.475Z,74.70
2019-03-12T10:31:54.438Z,75.20
2019-03-12T10:34:57.227Z,73.00
2019-03-12T10:37:44.140Z,72.80
2019-03-12T10:40:37.303Z,71.60
2019-03-12T10:43:25.381Z,75.00
2019-03-12T10:46:11.282Z,70.20
2019-03-12T10:48:39.138Z,71.30
2019-03-12T10:51:06.753Z,68.60
2019-03-12T10:53:34.823Z,71.60
2019-03-12T10:56:02.556Z,71.00
2019-03-12T10:58:29.952Z,71.20
2019-03-12T11:00:57.394Z,72.10
2019-03-12T11:03:25.484Z,70.90
2019-03-12T11:05:53.004Z,68.50
2019-03-12T11:08:20.405Z,70.50
2019-03-12T11:10:47.862Z,70.90
2019-03-12T11:13:15.224Z,71.80
2019-03-12T11:15:42.911Z,71.10
2019-03-12T11:18:10.355Z,68.80
2019-03-12T11:20:38.130Z,69.30
2019-03-12T11:23:05.613Z,69.60
2019-03-12T11:25:33.083Z,69.10
2019-03-12T11:28:00.510Z,66.80
2019-03-12T11:30:28.429Z,67.10
2019-03-12T11:32:55.820Z,69.70
2019-03-12T11:35:23.253Z,70.60
2019-03-12T11:37:51.131Z,69.60
2019-03-12T11:40:19.243Z,67.20
2019-03-12T11:42:46.717Z,71.20
2019-03-12T11:45:18.119Z,70.50
2019-03-12T11:47:44.170Z,69.10
2019-03-12T11:50:14.529Z,68.40
2019-03-12T11:52:52.435Z,68.10
2019-03-12T11:55:11.500Z,70.20
2019-03-12T11:57:38.920Z,67.80
2019-03-12T12:00:07.732Z,65.40
2019-03-12T12:02:35.516Z,68.30
2019-03-12T12:05:03.582Z,65.40
2019-03-12T12:07:31.435Z,66.80
2019-03-12T12:09:58.980Z,67.40
2019-03-12T12:12:26.527Z,69.00
2019-03-12T12:14:53.939Z,69.40
2019-03-12T12:17:21.666Z,68.30
2019-03-12T12:19:49.334Z,69.70
2019-03-12T12:22:16.697Z,64.30
2019-03-12T12:24:44.403Z,63.20
2019-03-12T12:27:11.843Z,61.60
2019-03-12T12:29:39.211Z,61.00
2019-03-12T12:32:06.627Z,62.70
2019-03-12T12:34:34.368Z,64.40
2019-03-12T12:37:01.851Z,63.80
2019-03-12T12:39:29.527Z,63.80
2019-03-12T12:41:56.901Z,65.60
2019-03-12T12:44:24.379Z,65.50
2019-03-12T12:46:52.250Z,63.70
2019-03-12T12:49:19.601Z,63.10
2019-03-12T12:51:47.266Z,62.20
2019-03-12T12:54:14.736Z,61.90
2019-03-12T12:56:42.538Z,62.70
2019-03-12T12:59:10.449Z,61.70
2019-03-12T13:01:38.446Z,60.70
2019-03-12T13:04:06.185Z,58.10
2019-03-12T13:06:34.047Z,57.90
2019-03-12T13:09:01.445Z,56.60
2019-03-12T13:11:28.981Z,57.00
2019-03-12T13:13:56.505Z,57.40
2019-03-12T13:16:25.606Z,56.40
2019-03-12T13:18:54.002Z,54.70
2019-03-12T13:21:21.405Z,56.60
2019-03-12T13:23:48.912Z,57.10
2019-03-12T13:26:16.966Z,55.80
2019-03-12T13:28:45.142Z,56.20
2019-03-12T13:31:12.764Z,54.90
2019-03-12T13:33:40.203Z,54.00
2019-03-12T13:36:12.972Z,52.70
2019-03-12T13:38:45.534Z,53.30
2019-03-12T13:41:10.045Z,53.40
2019-03-12T13:43:37.905Z,54.70
2019-03-12T13:46:05.369Z,54.50
2019-03-12T13:48:32.776Z,52.90
2019-03-12T13:51:00.804Z,53.20
2019-03-12T13:53:28.179Z,53.60
2019-03-12T13:55:55.640Z,54.60
2019-03-12T13:58:23.017Z,53.90
2019-03-12T14:00:50.607Z,53.90
2019-03-12T14:03:18.236Z,53.30
2019-03-12T14:05:45.831Z,53.50
2019-03-12T14:08:13.472Z,53.20
2019-03-12T14:10:41.261Z,52.50
2019-03-12T14:13:08.673Z,53.60
2019-03-12T14:15:36.623Z,53.70
2019-03-12T14:18:04.242Z,52.80
2019-03-12T14:20:50.517Z,52.40
2019-03-12T14:23:24.348Z,52.40
2019-03-12T14:25:52.537Z,52.30
2019-03-12T14:28:20.705Z,52.20
2019-03-12T14:30:48.299Z,52.40
2019-03-12T14:33:16.077Z,53.50
2019-03-12T14:35:51.538Z,54.50
2019-03-12T14:38:13.191Z,54.40
2019-03-12T14:40:40.890Z,52.50
2019-03-12T14:43:08.482Z,53.10
2019-03-12T14:45:37.725Z,55.10
2019-03-12T14:48:05.471Z,55.20
2019-03-12T14:50:33.235Z,55.00
2019-03-12T14:53:07.309Z,54.60
2019-03-12T14:55:34.415Z,54.80
2019-03-12T14:58:02.112Z,54.50
2019-03-12T15:00:30.165Z,56.80
2019-03-12T15:02:58.031Z,55.40
2019-03-12T15:05:25.695Z,54.40
2019-03-12T15:07:59.875Z,54.80
2019-03-12T15:10:27.677Z,54.60
2019-03-12T15:12:55.613Z,53.50
2019-03-12T15:15:23.046Z,52.80
2019-03-12T15:17:50.543Z,53.40
2019-03-12T15:20:18.516Z,53.80
2019-03-12T15:22:46.047Z,53.10
2019-03-12T15:25:13.680Z,53.00
2019-03-12T15:27:41.242Z,52.70
2019-03-12T15:30:11.807Z,52.50
2019-03-12T15:32:39.178Z,52.90
2019-03-12T15:35:06.814Z,53.20
2019-03-12T15:37:34.557Z,51.90
2019-03-12T15:40:02.047Z,52.30
2019-03-12T15:42:29.662Z,52.50
2019-03-12T15:44:57.407Z,52.90
2019-03-12T15:47:24.887Z,53.80
2019-03-12T15:49:52.355Z,53.00
2019-03-12T15:52:19.848Z,54.10
2019-03-12T15:54:47.201Z,54.60
2019-03-12T15:57:14.963Z,53.90
2019-03-12T15:59:42.780Z,53.90
2019-03-12T16:02:10.261Z,53.20
2019-03-12T16:04:37.732Z,53.60
2019-03-12T16:07:05.714Z,54.00
2019-03-12T16:09:33.602Z,54.30
2019-03-12T16:12:01.470Z,54.80
2019-03-12T16:14:29.232Z,53.90
2019-03-12T16:16:57.211Z,54.30
2019-03-12T16:19:25.054Z,54.70
2019-03-12T16:21:52.505Z,53.70
2019-03-12T16:24:20.208Z,53.90
2019-03-12T16:26:48.049Z,54.50
2019-03-12T16:29:15.602Z,54.90
2019-03-12T16:31:43.080Z,54.80
2019-03-12T16:34:11.009Z,55.40
2019-03-12T16:36:38.722Z,56.00
2019-03-12T16:39:06.355Z,56.20
2019-03-12T16:41:33.915Z,56.10
2019-03-12T16:44:01.304Z,56.50
2019-03-12T16:46:28.770Z,56.60
2019-03-12T16:48:56.306Z,56.80
2019-03-12T16:51:24.044Z,57.20
2019-03-12T16:53:52.362Z,57.30
2019-03-12T16:56:20.084Z,57.40
2019-03-12T16:58:47.813Z,57.70
2019-03-12T17:01:15.291Z,58.50
2019-03-12T17:03:42.852Z,58.20
2019-03-12T17:06:10.599Z,58.20
2019-03-12T17:08:38.624Z,58.20
2019-03-12T17:11:06.797Z,58.50
2019-03-12T17:13:34.688Z,58.70
2019-03-12T17:16:02.119Z,58.70
2019-03-12T17:18:29.972Z,58.90
2019-03-12T17:20:57.501Z,58.80
2019-03-12T17:23:25.044Z,60.00
2019-03-12T17:25:52.796Z,59.60
2019-03-12T17:28:20.450Z,60.00
2019-03-12T17:30:47.882Z,60.00
2019-03-12T17:33:15.661Z,60.00
2019-03-12T17:35:43.503Z,60.30
2019-03-12T17:38:11.258Z,60.20
2019-03-12T17:40:38.773Z,59.90
2019-03-12T17:43:06.509Z,60.50
2019-03-12T17:45:34.063Z,60.40
2019-03-12T17:48:01.558Z,60.80
2019-03-12T17:50:29.045Z,60.60
2019-03-12T17:52:56.700Z,61.00
2019-03-12T17:55:24.117Z,62.00
2019-03-12T17:57:52.311Z,61.80
2019-03-12T18:00:21.512Z,61.80
2019-03-12T18:02:49.265Z,61.70
2019-03-12T18:05:17.063Z,62.10
2019-03-12T18:07:44.782Z,62.00
2019-03-12T18:10:12.388Z,61.70
2019-03-12T18:12:40.316Z,62.10
2019-03-12T18:15:12.504Z,62.00
2019-03-12T18:17:40.410Z,62.40
2019-03-12T18:20:11.220Z,62.10
2019-03-12T18:22:39.194Z,62.10
2019-03-12T18:25:12.749Z,62.10
2019-03-12T18:27:40.816Z,62.40
2019-03-12T18:30:11.334Z,62.40
2019-03-12T18:32:38.901Z,62.40
2019-03-12T18:35:06.405Z,62.70
2019-03-12T18:37:34.164Z,62.20
2019-03-12T18:40:01.706Z,62.30
2019-03-12T18:42:29.630Z,62.50
2019-03-12T18:44:57.281Z,62.80
2019-03-12T18:51:05.534Z,63.00
2019-03-12T18:53:33.129Z,62.70
2019-03-12T18:56:05.733Z,61.90
2019-03-12T18:58:33.247Z,62.20
2019-03-12T19:01:21.496Z,61.50
2019-03-12T19:03:49.948Z,59.90
2019-03-12T19:06:17.838Z,58.80
2019-03-12T19:08:48.027Z,59.40
2019-03-12T19:11:15.952Z,59.50
2019-03-12T19:13:47.746Z,58.30
2019-03-12T19:16:15.508Z,58.90
2019-03-12T19:18:43.003Z,57.40
2019-03-12T19:21:10.824Z,56.10
2019-03-12T19:23:38.964Z,55.80
2019-03-12T19:26:08.381Z,54.00
2019-03-12T19:28:35.943Z,54.10
2019-03-12T19:31:26.612Z,53.90
2019-03-12T19:34:01.987Z,52.30
2019-03-12T19:36:31.188Z,53.20
2019-03-12T19:38:59.050Z,52.00
2019-03-12T19:41:30.611Z,52.30
2019-03-12T19:43:58.305Z,51.60
2019-03-12T19:46:25.983Z,52.10
2019-03-12T19:48:53.419Z,51.90
2019-03-12T19:51:21.005Z,51.90
2019-03-12T19:53:48.630Z,52.30
2019-03-12T19:56:16.127Z,52.10
2019-03-12T19:58:44.551Z,51.50
2019-03-12T20:01:13.114Z,52.80
2019-03-12T20:03:41.237Z,51.60
2019-03-12T20:06:09.143Z,52.50
2019-03-12T20:08:38.191Z,52.40
2019-03-12T20:11:57.299Z,51.80
2019-03-12T20:14:58.302Z,51.80
2019-03-12T20:18:03.037Z,51.80
2019-03-12T20:21:08.484Z,51.60
2019-03-12T20:24:10.862Z,52.30
2019-03-12T20:27:20.222Z,52.30
2019-03-12T20:30:38.400Z,52.10
2019-03-12T20:33:59.708Z,53.60
2019-03-12T20:37:10.993Z,52.80
2019-03-12T20:40:24.993Z,52.30
2019-03-12T20:43:42.245Z,53.50
2019-03-12T20:46:42.911Z,53.50
2019-03-12T20:49:47.277Z,54.00
2019-03-12T20:53:00.945Z,54.60
2019-03-12T20:56:12.666Z,54.10
2019-03-12T20:59:17.735Z,55.10
2019-03-12T21:02:32.481Z,56.20
2019-03-12T21:05:35.172Z,56.70
2019-03-12T21:08:52.439Z,56.50
2019-03-12T21:11:56.945Z,58.30
2019-03-12T21:14:49.509Z,60.00
2019-03-12T21:18:01.447Z,60.80
2019-03-12T21:21:07.087Z,61.10
2019-03-12T21:24:01.399Z,62.00
2019-03-12T21:27:19.776Z,62.90
2019-03-12T21:29:50.332Z,63.60
2019-03-12T21:32:18.371Z,65.60
2019-03-12T21:34:46.147Z,67.00
2019-03-12T21:37:13.732Z,68.90
2019-03-12T21:39:54.597Z,69.80
2019-03-12T21:42:11.622Z,71.70
2019-03-12T21:44:39.443Z,73.00
2019-03-12T21:47:07.237Z,74.00
2019-03-12T21:49:34.771Z,74.00
2019-03-12T21:52:02.656Z,75.20
2019-03-12T21:54:30.242Z,75.80
2019-03-12T21:56:57.704Z,75.60
2019-03-12T21:59:26.173Z,75.60
2019-03-12T22:01:53.995Z,76.20
2019-03-12T22:04:21.721Z,76.70
2019-03-12T22:06:49.644Z,76.70
2019-03-12T22:09:17.010Z,76.90
2019-03-12T22:11:45.186Z,77.40
2019-03-12T22:14:12.622Z,78.10
2019-03-12T22:16:40.369Z,77.90
2019-03-12T22:19:07.882Z,78.30
2019-03-12T22:21:57.635Z,79.20
2019-03-12T22:24:25.476Z,78.90
2019-03-12T22:26:53.286Z,78.50
2019-03-12T22:29:20.891Z,79.20
2019-03-12T22:31:48.398Z,79.00
2019-03-12T22:34:16.145Z,78.80
2019-03-12T22:36:43.781Z,79.30
2019-03-12T22:39:11.228Z,79.80
2019-03-12T22:41:38.742Z,81.50
2019-03-12T22:44:06.200Z,83.40
2019-03-12T22:46:33.764Z,86.20
2019-03-12T22:49:01.557Z,88.00
2019-03-12T22:51:28.984Z,89.80
2019-03-12T22:53:56.806Z,90.30
2019-03-12T22:56:24.237Z,91.00
2019-03-12T22:58:51.685Z,91.80
2019-03-12T23:01:19.365Z,92.20
2019-03-12T23:03:47.607Z,92.80
2019-03-12T23:06:14.963Z,93.80
2019-03-12T23:08:42.787Z,94.40
2019-03-12T23:11:10.911Z,94.90
2019-03-12T23:13:39.001Z,95.20
2019-03-12T23:16:06.477Z,94.30
2019-03-12T23:18:34.096Z,95.20
2019-03-12T23:21:01.730Z,94.50
2019-03-12T23:23:29.678Z,94.50
2019-03-12T23:25:57.669Z,94.50
2019-03-12T23:28:25.332Z,94.70
2019-03-12T23:30:53.156Z,94.90
2019-03-12T23:33:21.135Z,94.80
2019-03-12T23:35:48.657Z,94.70
2019-03-12T23:38:16.526Z,95.00
2019-03-12T23:40:43.883Z,95.10
2019-03-12T23:43:11.630Z,95.10
2019-03-12T23:45:39.501Z,95.20
2019-03-12T23:48:07.086Z,95.80
2019-03-12T23:50:34.926Z,96.70
2019-03-12T23:53:02.714Z,97.40
2019-03-12T23:55:30.551Z,97.60
2019-03-12T23:57:58.468Z,97.60
